Black Star — 9HA2911 — position and weather

sailwx.info

Track history (hours):
 
Tides and Currents Weather Stations Pressure Air Temp Water Temp Dewpoint Dewpoint Depression Visibility Wind Speed Wind Dir Waves Ship Positions

Black Star

Last reported at 2014-Aug-20 01:16 UTC. Time now 2014-Aug-20 08:55 UTC.
Position N 40°51' E 029°02'.

Length 128 m; draft 6.5 m.

Type: Ship (hazmat cat B). MMSI: 256714000.

Date/timePositionNaut miles runAvg speedWind from/ knotsBaromVisibWave heightAir tempDewpointWater temp
2014-Aug-20 01:16N 40°51' E 029°02'911.4
2014-Aug-20 00:30N 40°47' E 029°11'  
2014-Aug-16 10:30N 40°44' E 029°21'9 9.2
2014-Aug-16 09:32N 40°43' E 029°10'1210.7
2014-Aug-16 08:22N 40°44' E 028°53'1210.8
2014-Aug-16 07:17N 40°44' E 028°38'2712.3
2014-Aug-16 05:03N 40°45' E 028°02'27310.7
2014-Aug-15 03:33N 37°19' E 024°12'1211.9
2014-Aug-15 02:33N 37°09' E 024°04'1312.6
2014-Aug-15 01:33N 36°59' E 023°54'1212.3
2014-Aug-15 00:33N 36°49' E 023°44'1312.5
2014-Aug-14 23:33N 36°39' E 023°34'1212.4
2014-Aug-14 22:33N 36°31' E 023°24'47411.3
2014-Aug-13 04:33N 37°03' E 013°33'1711.4
2014-Aug-13 03:05N 37°11' E 013°14'6511.6
2014-Aug-12 21:29N 37°24' E 011°54'1212.3
2014-Aug-12 20:30N 37°22' E 011°39'1212.2
2014-Aug-12 19:33N 37°20' E 011°25'1211.7
2014-Aug-12 18:33N 37°22' E 011°10'1212.3
2014-Aug-12 17:33N 37°25' E 010°55'1212.4
2014-Aug-12 16:33N 37°28' E 010°40'1212.2
2014-Aug-12 15:33N 37°30' E 010°25'1212.3
2014-Aug-12 14:33N 37°33' E 010°10'1312.7
2014-Aug-12 13:33N 37°31' E 009°54'1313.1
2014-Aug-12 12:33N 37°29' E 009°38'1313.0
2014-Aug-12 11:32N 37°26' E 009°22'1212.6
2014-Aug-12 10:33N 37°24' E 009°07'2912.5
2014-Aug-12 08:15N 37°18' E 008°31'1012.6
2014-Aug-12 07:27N 37°19' E 008°18'1212.5
2014-Aug-12 06:28N 37°19' E 008°03'3813.0
2014-Aug-12 03:32N 37°19' E 007°15'1513.3
2014-Aug-12 02:26N 37°19' E 006°56'5413.1
2014-Aug-11 22:17N 37°18' E 005°48'912.3
2014-Aug-11 21:33N 37°17' E 005°37'3012.2
2014-Aug-11 19:06N 37°16' E 004°60'712.7
2014-Aug-11 18:32N 37°15' E 004°50'1212.6
2014-Aug-11 17:33N 37°15' E 004°35'2612.8
2014-Aug-11 15:33N 37°13' E 004°03'1313.6
2014-Aug-11 14:33N 37°11' E 003°46'15 4.3
2014-Aug-11 11:09N 37°09' E 003°28'712.4
2014-Aug-11 10:33N 37°08' E 003°18'1312.5
2014-Aug-11 09:30N 37°06' E 003°02'1212.7
2014-Aug-11 08:32N 37°05' E 002°47'1512.9
2014-Aug-11 07:23N 37°04' E 002°28'1113.5
2014-Aug-11 06:33N 37°04' E 002°14'1413.4
2014-Aug-11 05:30N 37°02' E 001°57'1313.6
2014-Aug-11 04:32N 36°58' E 001°41'1313.3
2014-Aug-11 03:33N 36°55' E 001°25'1413.3
2014-Aug-11 02:31N 36°53' E 001°08'1313.3
2014-Aug-11 01:33N 36°50' E 000°52'1313.2
2014-Aug-11 00:33N 36°48' E 000°36'1513.0
2014-Aug-10 23:26N 36°45' E 000°18'1213.3
2014-Aug-10 22:32N 36°43' E 000°04'2713.2
2014-Aug-10 20:31N 36°38' W 000°29'1313.0
2014-Aug-10 19:32N 36°36' W 000°45'5212.9
2014-Aug-10 15:32N 36°26' W 001°48'  
Track history (hours):
 
Tides and Currents Weather Stations Pressure Air Temp Water Temp Dewpoint Dewpoint Depression Visibility Wind Speed Wind Dir Waves Ship Positions

Black Star

Last reported at 2014-Aug-20 01:16 UTC. Time now 2014-Aug-20 08:55 UTC.
Position N 40°51' E 029°02'.

Length 128 m; draft 6.5 m.

Type: Ship (hazmat cat B). MMSI: 256714000.

Date/timePositionNaut miles runAvg speedWind from/ knotsBaromVisibWave heightAir tempDewpointWater temp
2014-Aug-20 01:16N 40°51' E 029°02'911.4
2014-Aug-20 00:30N 40°47' E 029°11'  
2014-Aug-16 10:30N 40°44' E 029°21'9 9.2
2014-Aug-16 09:32N 40°43' E 029°10'1210.7
2014-Aug-16 08:22N 40°44' E 028°53'1210.8
2014-Aug-16 07:17N 40°44' E 028°38'2712.3
2014-Aug-16 05:03N 40°45' E 028°02'27310.7
2014-Aug-15 03:33N 37°19' E 024°12'1211.9
2014-Aug-15 02:33N 37°09' E 024°04'1312.6
2014-Aug-15 01:33N 36°59' E 023°54'1212.3
2014-Aug-15 00:33N 36°49' E 023°44'1312.5
2014-Aug-14 23:33N 36°39' E 023°34'1212.4
2014-Aug-14 22:33N 36°31' E 023°24'47411.3
2014-Aug-13 04:33N 37°03' E 013°33'1711.4
2014-Aug-13 03:05N 37°11' E 013°14'6511.6
2014-Aug-12 21:29N 37°24' E 011°54'1212.3
2014-Aug-12 20:30N 37°22' E 011°39'1212.2
2014-Aug-12 19:33N 37°20' E 011°25'1211.7
2014-Aug-12 18:33N 37°22' E 011°10'1212.3
2014-Aug-12 17:33N 37°25' E 010°55'1212.4
2014-Aug-12 16:33N 37°28' E 010°40'1212.2
2014-Aug-12 15:33N 37°30' E 010°25'1212.3
2014-Aug-12 14:33N 37°33' E 010°10'1312.7
2014-Aug-12 13:33N 37°31' E 009°54'1313.1
2014-Aug-12 12:33N 37°29' E 009°38'1313.0
2014-Aug-12 11:32N 37°26' E 009°22'1212.6
2014-Aug-12 10:33N 37°24' E 009°07'2912.5
2014-Aug-12 08:15N 37°18' E 008°31'1012.6
2014-Aug-12 07:27N 37°19' E 008°18'1212.5
2014-Aug-12 06:28N 37°19' E 008°03'3813.0
2014-Aug-12 03:32N 37°19' E 007°15'1513.3
2014-Aug-12 02:26N 37°19' E 006°56'5413.1
2014-Aug-11 22:17N 37°18' E 005°48'912.3
2014-Aug-11 21:33N 37°17' E 005°37'3012.2
2014-Aug-11 19:06N 37°16' E 004°60'712.7
2014-Aug-11 18:32N 37°15' E 004°50'1212.6
2014-Aug-11 17:33N 37°15' E 004°35'2612.8
2014-Aug-11 15:33N 37°13' E 004°03'1313.6
2014-Aug-11 14:33N 37°11' E 003°46'15 4.3
2014-Aug-11 11:09N 37°09' E 003°28'712.4
2014-Aug-11 10:33N 37°08' E 003°18'1312.5
2014-Aug-11 09:30N 37°06' E 003°02'1212.7
2014-Aug-11 08:32N 37°05' E 002°47'1512.9
2014-Aug-11 07:23N 37°04' E 002°28'1113.5
2014-Aug-11 06:33N 37°04' E 002°14'1413.4
2014-Aug-11 05:30N 37°02' E 001°57'1313.6
2014-Aug-11 04:32N 36°58' E 001°41'1313.3
2014-Aug-11 03:33N 36°55' E 001°25'1413.3
2014-Aug-11 02:31N 36°53' E 001°08'1313.3
2014-Aug-11 01:33N 36°50' E 000°52'1313.2
2014-Aug-11 00:33N 36°48' E 000°36'1513.0
2014-Aug-10 23:26N 36°45' E 000°18'1213.3
2014-Aug-10 22:32N 36°43' E 000°04'2713.2
2014-Aug-10 20:31N 36°38' W 000°29'1313.0
2014-Aug-10 19:32N 36°36' W 000°45'5212.9
2014-Aug-10 15:32N 36°26' W 001°48'  

Dump ship's entire track history